sensor_id;sensor_type;location;lat;lon;timestamp;pressure;altitude;pressure_sealevel;temperature;humidity
49397;BME280;35615;41.410;2.194;2023-06-14T00:01:16;100780.03;;;24.96;51.33
49397;BME280;35615;41.410;2.194;2023-06-14T00:03:44;100775.69;;;24.92;51.37
49397;BME280;35615;41.410;2.194;2023-06-14T00:06:13;100768.06;;;24.78;52.10
49397;BME280;35615;41.410;2.194;2023-06-14T00:08:44;100763.75;;;24.74;51.97
49397;BME280;35615;41.410;2.194;2023-06-14T00:11:14;100764.44;;;24.82;52.15
49397;BME280;35615;41.410;2.194;2023-06-14T00:13:42;100753.91;;;24.81;52.04
49397;BME280;35615;41.410;2.194;2023-06-14T00:16:10;100763.72;;;24.76;52.51
49397;BME280;35615;41.410;2.194;2023-06-14T00:18:37;100766.38;;;24.74;52.38
49397;BME280;35615;41.410;2.194;2023-06-14T00:21:05;100763.69;;;24.77;51.98
49397;BME280;35615;41.410;2.194;2023-06-14T00:23:33;100764.47;;;24.81;52.16
49397;BME280;35615;41.410;2.194;2023-06-14T00:26:02;100765.31;;;24.84;52.51
49397;BME280;35615;41.410;2.194;2023-06-14T00:28:32;100766.28;;;24.79;52.86
49397;BME280;35615;41.410;2.194;2023-06-14T00:31:15;100762.16;;;24.66;53.51
49397;BME280;35615;41.410;2.194;2023-06-14T00:33:46;100759.38;;;24.73;52.92
49397;BME280;35615;41.410;2.194;2023-06-14T00:36:16;100761.28;;;24.65;53.73
49397;BME280;35615;41.410;2.194;2023-06-14T00:38:51;100760.50;;;24.58;52.91
49397;BME280;35615;41.410;2.194;2023-06-14T00:41:23;100758.94;;;24.50;52.92
49397;BME280;35615;41.410;2.194;2023-06-14T00:43:51;100759.72;;;24.55;52.73
49397;BME280;35615;41.410;2.194;2023-06-14T00:46:22;100757.84;;;24.60;52.77
49397;BME280;35615;41.410;2.194;2023-06-14T00:48:50;100757.94;;;24.55;52.40
49397;BME280;35615;41.410;2.194;2023-06-14T00:51:18;100760.47;;;24.60;52.18
49397;BME280;35615;41.410;2.194;2023-06-14T00:53:49;100760.50;;;24.58;52.26
49397;BME280;35615;41.410;2.194;2023-06-14T00:56:19;100771.44;;;24.40;52.36
49397;BME280;35615;41.410;2.194;2023-06-14T00:58:50;100768.81;;;24.40;52.07
49397;BME280;35615;41.410;2.194;2023-06-14T01:01:18;100767.78;;;24.47;52.11
49397;BME280;35615;41.410;2.194;2023-06-14T01:03:47;100768.66;;;24.48;51.97
49397;BME280;35615;41.410;2.194;2023-06-14T01:06:45;100767.75;;;24.49;52.36
49397;BME280;35615;41.410;2.194;2023-06-14T01:09:47;100758.19;;;24.43;51.78
49397;BME280;35615;41.410;2.194;2023-06-14T01:12:23;100755.59;;;24.39;51.83
49397;BME280;35615;41.410;2.194;2023-06-14T01:14:54;100760.88;;;24.39;51.68
49397;BME280;35615;41.410;2.194;2023-06-14T01:17:22;100748.59;;;24.39;51.62
49397;BME280;35615;41.410;2.194;2023-06-14T01:19:53;100752.97;;;24.40;51.46
49397;BME280;35615;41.410;2.194;2023-06-14T01:22:29;100755.59;;;24.39;51.06
49397;BME280;35615;41.410;2.194;2023-06-14T01:24:56;100765.19;;;24.44;51.16
49397;BME280;35615;41.410;2.194;2023-06-14T01:27:25;100763.44;;;24.45;50.81
49397;BME280;35615;41.410;2.194;2023-06-14T01:29:56;100758.06;;;24.48;51.01
49397;BME280;35615;41.410;2.194;2023-06-14T01:32:25;100773.84;;;24.52;50.88
49397;BME280;35615;41.410;2.194;2023-06-14T01:34:54;100770.50;;;24.43;51.01
49397;BME280;35615;41.410;2.194;2023-06-14T01:37:24;100772.97;;;24.53;50.94
49397;BME280;35615;41.410;2.194;2023-06-14T01:39:53;100767.63;;;24.55;50.47
49397;BME280;35615;41.410;2.194;2023-06-14T01:42:23;100770.28;;;24.55;51.03
49397;BME280;35615;41.410;2.194;2023-06-14T01:44:52;100771.13;;;24.57;50.62
49397;BME280;35615;41.410;2.194;2023-06-14T01:47:22;100772.00;;;24.57;50.69
49397;BME280;35615;41.410;2.194;2023-06-14T01:49:52;100773.03;;;24.50;50.78
49397;BME280;35615;41.410;2.194;2023-06-14T01:52:19;100771.22;;;24.52;50.84
49397;BME280;35615;41.410;2.194;2023-06-14T01:54:49;100769.31;;;24.59;50.71
49397;BME280;35615;41.410;2.194;2023-06-14T01:57:16;100771.03;;;24.61;50.80
49397;BME280;35615;41.410;2.194;2023-06-14T01:59:44;100766.66;;;24.59;50.63
49397;BME280;35615;41.410;2.194;2023-06-14T02:02:15;100768.44;;;24.58;50.76
49397;BME280;35615;41.410;2.194;2023-06-14T02:04:42;100774.56;;;24.62;50.34
49397;BME280;35615;41.410;2.194;2023-06-14T02:07:10;100770.09;;;24.64;50.45
49397;BME280;35615;41.410;2.194;2023-06-14T02:09:40;100767.56;;;24.58;50.48
49397;BME280;35615;41.410;2.194;2023-06-14T02:12:09;100764.91;;;24.61;50.52
49397;BME280;35615;41.410;2.194;2023-06-14T02:14:37;100774.56;;;24.60;50.61
49397;BME280;35615;41.410;2.194;2023-06-14T02:17:05;100768.50;;;24.55;50.42
49397;BME280;35615;41.410;2.194;2023-06-14T02:19:34;100769.28;;;24.60;49.79
49397;BME280;35615;41.410;2.194;2023-06-14T02:22:02;100765.78;;;24.58;50.13
49397;BME280;35615;41.410;2.194;2023-06-14T02:24:30;100762.25;;;24.59;50.14
49397;BME280;35615;41.410;2.194;2023-06-14T02:26:58;100766.63;;;24.60;49.91
49397;BME280;35615;41.410;2.194;2023-06-14T02:29:25;100768.34;;;24.65;49.98
49397;BME280;35615;41.410;2.194;2023-06-14T02:31:55;100766.53;;;24.67;50.07
49397;BME280;35615;41.410;2.194;2023-06-14T02:34:29;100766.47;;;24.70;49.90
49397;BME280;35615;41.410;2.194;2023-06-14T02:36:58;100763.84;;;24.68;49.97
49397;BME280;35615;41.410;2.194;2023-06-14T02:39:26;100759.44;;;24.69;50.36
49397;BME280;35615;41.410;2.194;2023-06-14T02:41:53;100764.78;;;24.66;50.08
49397;BME280;35615;41.410;2.194;2023-06-14T02:44:24;100762.97;;;24.68;50.00
49397;BME280;35615;41.410;2.194;2023-06-14T02:46:56;100760.28;;;24.71;50.18
49397;BME280;35615;41.410;2.194;2023-06-14T02:49:25;100758.50;;;24.73;50.15
49397;BME280;35615;41.410;2.194;2023-06-14T02:51:54;100764.66;;;24.72;50.13
49397;BME280;35615;41.410;2.194;2023-06-14T02:54:24;100762.00;;;24.72;49.68
49397;BME280;35615;41.410;2.194;2023-06-14T02:56:55;100767.44;;;24.66;49.92
49397;BME280;35615;41.410;2.194;2023-06-14T02:59:22;100769.94;;;24.72;50.09
49397;BME280;35615;41.410;2.194;2023-06-14T03:01:54;100777.88;;;24.72;50.05
49397;BME280;35615;41.410;2.194;2023-06-14T03:04:22;100776.13;;;24.71;50.33
49397;BME280;35615;41.410;2.194;2023-06-14T03:06:49;100776.13;;;24.72;49.87
49397;BME280;35615;41.410;2.194;2023-06-14T03:09:19;100781.41;;;24.72;50.11
49397;BME280;35615;41.410;2.194;2023-06-14T03:11:49;100780.56;;;24.69;49.99
49397;BME280;35615;41.410;2.194;2023-06-14T03:14:17;100782.34;;;24.68;50.02
49397;BME280;35615;41.410;2.194;2023-06-14T03:16:45;100790.34;;;24.65;50.52
49397;BME280;35615;41.410;2.194;2023-06-14T03:19:18;100794.66;;;24.69;50.08
49397;BME280;35615;41.410;2.194;2023-06-14T03:21:46;100802.69;;;24.65;50.05
49397;BME280;35615;41.410;2.194;2023-06-14T03:24:14;100807.97;;;24.65;50.29
49397;BME280;35615;41.410;2.194;2023-06-14T03:26:43;100801.94;;;24.56;49.99
49397;BME280;35615;41.410;2.194;2023-06-14T03:29:11;100800.25;;;24.54;49.13
49397;BME280;35615;41.410;2.194;2023-06-14T03:31:56;100802.44;;;24.29;49.18
49397;BME280;35615;41.410;2.194;2023-06-14T03:34:32;100808.63;;;24.25;49.73
49397;BME280;35615;41.410;2.194;2023-06-14T03:36:59;100805.06;;;24.29;49.67
49397;BME280;35615;41.410;2.194;2023-06-14T03:39:28;100807.34;;;24.49;48.86
49397;BME280;35615;41.410;2.194;2023-06-14T03:41:56;100800.22;;;24.55;49.00
49397;BME280;35615;41.410;2.194;2023-06-14T03:44:24;100807.28;;;24.53;48.88
49397;BME280;35615;41.410;2.194;2023-06-14T03:46:54;100799.34;;;24.55;48.38
49397;BME280;35615;41.410;2.194;2023-06-14T03:49:23;100803.84;;;24.50;48.39
49397;BME280;35615;41.410;2.194;2023-06-14T03:51:50;100803.66;;;24.59;48.19
49397;BME280;35615;41.410;2.194;2023-06-14T03:54:21;100810.72;;;24.58;48.29
49397;BME280;35615;41.410;2.194;2023-06-14T03:56:53;100800.09;;;24.61;48.27
49397;BME280;35615;41.410;2.194;2023-06-14T03:59:20;100810.63;;;24.63;47.86
49397;BME280;35615;41.410;2.194;2023-06-14T04:01:48;100807.97;;;24.65;48.12
49397;BME280;35615;41.410;2.194;2023-06-14T04:04:16;100812.25;;;24.70;48.32
49397;BME280;35615;41.410;2.194;2023-06-14T04:06:43;100806.09;;;24.70;47.82
49397;BME280;35615;41.410;2.194;2023-06-14T04:09:11;100812.25;;;24.70;48.14
49397;BME280;35615;41.410;2.194;2023-06-14T04:11:40;100820.25;;;24.67;48.64
49397;BME280;35615;41.410;2.194;2023-06-14T04:14:07;100822.94;;;24.64;48.69
49397;BME280;35615;41.410;2.194;2023-06-14T04:16:38;100830.78;;;24.69;48.67
49397;BME280;35615;41.410;2.194;2023-06-14T04:19:06;100828.97;;;24.71;48.76
49397;BME280;35615;41.410;2.194;2023-06-14T04:21:36;100831.69;;;24.68;48.42
49397;BME280;35615;41.410;2.194;2023-06-14T04:24:12;100830.00;;;24.63;48.86
49397;BME280;35615;41.410;2.194;2023-06-14T04:26:45;100828.19;;;24.66;48.42
49397;BME280;35615;41.410;2.194;2023-06-14T04:29:20;100833.38;;;24.70;48.45
49397;BME280;35615;41.410;2.194;2023-06-14T04:31:57;100826.34;;;24.69;48.53
49397;BME280;35615;41.410;2.194;2023-06-14T04:34:29;100822.88;;;24.67;48.88
49397;BME280;35615;41.410;2.194;2023-06-14T04:36:58;100829.91;;;24.68;48.78
49397;BME280;35615;41.410;2.194;2023-06-14T04:39:35;100828.06;;;24.73;48.90
49397;BME280;35615;41.410;2.194;2023-06-14T04:42:03;100838.56;;;24.76;48.62
49397;BME280;35615;41.410;2.194;2023-06-14T04:44:35;100843.94;;;24.70;48.97
49397;BME280;35615;41.410;2.194;2023-06-14T04:47:04;100847.50;;;24.69;48.93
49397;BME280;35615;41.410;2.194;2023-06-14T04:49:31;100844.78;;;24.74;48.67
49397;BME280;35615;41.410;2.194;2023-06-14T04:52:04;100852.81;;;24.68;49.07
49397;BME280;35615;41.410;2.194;2023-06-14T04:54:43;100854.59;;;24.67;49.26
49397;BME280;35615;41.410;2.194;2023-06-14T04:57:17;100858.03;;;24.71;49.13
49397;BME280;35615;41.410;2.194;2023-06-14T04:59:51;100864.16;;;24.74;48.98
49397;BME280;35615;41.410;2.194;2023-06-14T05:02:24;100869.41;;;24.76;49.46
49397;BME280;35615;41.410;2.194;2023-06-14T05:04:54;100879.97;;;24.76;49.32
49397;BME280;35615;41.410;2.194;2023-06-14T05:07:25;100878.25;;;24.73;49.42
49397;BME280;35615;41.410;2.194;2023-06-14T05:09:53;100877.41;;;24.73;49.38
49397;BME280;35615;41.410;2.194;2023-06-14T05:12:26;100870.38;;;24.70;49.65
49397;BME280;35615;41.410;2.194;2023-06-14T05:15:00;100880.00;;;24.74;49.42
49397;BME280;35615;41.410;2.194;2023-06-14T05:17:27;100879.03;;;24.78;49.53
49397;BME280;35615;41.410;2.194;2023-06-14T05:19:58;100883.41;;;24.79;50.07
49397;BME280;35615;41.410;2.194;2023-06-14T05:22:25;100879.13;;;24.74;49.84
49397;BME280;35615;41.410;2.194;2023-06-14T05:24:53;100883.34;;;24.84;50.04
49397;BME280;35615;41.410;2.194;2023-06-14T05:27:21;100887.63;;;24.89;49.95
49397;BME280;35615;41.410;2.194;2023-06-14T05:30:00;100883.28;;;24.87;50.13
49397;BME280;35615;41.410;2.194;2023-06-14T05:32:36;100884.88;;;24.97;50.65
49397;BME280;35615;41.410;2.194;2023-06-14T05:35:11;100877.91;;;24.91;49.96
49397;BME280;35615;41.410;2.194;2023-06-14T05:37:55;100871.69;;;24.94;50.03
49397;BME280;35615;41.410;2.194;2023-06-14T05:40:26;100872.44;;;25.02;49.70
49397;BME280;35615;41.410;2.194;2023-06-14T05:43:06;100878.56;;;25.06;50.34
49397;BME280;35615;41.410;2.194;2023-06-14T05:45:46;100884.72;;;25.05;49.72
49397;BME280;35615;41.410;2.194;2023-06-14T05:48:14;100894.44;;;25.06;49.52
49397;BME280;35615;41.410;2.194;2023-06-14T05:50:44;100893.31;;;25.17;49.79
49397;BME280;35615;41.410;2.194;2023-06-14T05:53:12;100895.97;;;25.17;49.04
49397;BME280;35615;41.410;2.194;2023-06-14T05:55:39;100886.19;;;25.21;49.57
49397;BME280;35615;41.410;2.194;2023-06-14T05:58:09;100890.50;;;25.25;49.49
49397;BME280;35615;41.410;2.194;2023-06-14T06:00:37;100892.28;;;25.25;49.44
49397;BME280;35615;41.410;2.194;2023-06-14T06:03:05;100891.78;;;25.06;49.87
49397;BME280;35615;41.410;2.194;2023-06-14T06:05:39;100890.28;;;24.89;49.25
49397;BME280;35615;41.410;2.194;2023-06-14T06:08:06;100898.00;;;25.00;49.05
49397;BME280;35615;41.410;2.194;2023-06-14T06:10:35;100893.50;;;25.08;48.91
49397;BME280;35615;41.410;2.194;2023-06-14T06:13:02;100895.22;;;25.09;48.76
49397;BME280;35615;41.410;2.194;2023-06-14T06:15:30;100902.28;;;25.09;48.09
49397;BME280;35615;41.410;2.194;2023-06-14T06:17:58;100906.22;;;25.33;48.24
49397;BME280;35615;41.410;2.194;2023-06-14T06:20:28;100894.97;;;25.22;48.07
49397;BME280;35615;41.410;2.194;2023-06-14T06:23:06;100892.06;;;25.35;47.63
49397;BME280;35615;41.410;2.194;2023-06-14T06:25:35;100896.09;;;25.53;47.54
49397;BME280;35615;41.410;2.194;2023-06-14T06:28:09;100900.81;;;25.39;47.15
49397;BME280;35615;41.410;2.194;2023-06-14T06:30:41;100910.28;;;25.51;46.49
49397;BME280;35615;41.410;2.194;2023-06-14T06:33:14;100907.56;;;25.54;46.75
49397;BME280;35615;41.410;2.194;2023-06-14T06:35:50;100911.94;;;25.55;46.31
49397;BME280;35615;41.410;2.194;2023-06-14T06:38:24;100921.69;;;25.53;46.68
49397;BME280;35615;41.410;2.194;2023-06-14T06:40:54;100923.38;;;25.55;46.34
49397;BME280;35615;41.410;2.194;2023-06-14T06:43:34;100916.47;;;25.48;46.65
49397;BME280;35615;41.410;2.194;2023-06-14T06:46:02;100912.91;;;25.51;46.91
49397;BME280;35615;41.410;2.194;2023-06-14T06:48:29;100921.22;;;25.32;47.38
49397;BME280;35615;41.410;2.194;2023-06-14T06:50:57;100912.53;;;25.67;46.56
49397;BME280;35615;41.410;2.194;2023-06-14T06:53:27;100912.34;;;25.78;46.88
49397;BME280;35615;41.410;2.194;2023-06-14T06:56:09;100926.25;;;25.88;46.17
49397;BME280;35615;41.410;2.194;2023-06-14T06:58:37;100931.75;;;25.78;46.48
49397;BME280;35615;41.410;2.194;2023-06-14T07:01:04;100927.25;;;25.84;45.87
49397;BME280;35615;41.410;2.194;2023-06-14T07:03:31;100936.34;;;25.67;45.89
49397;BME280;35615;41.410;2.194;2023-06-14T07:05:59;100942.03;;;25.92;45.52
49397;BME280;35615;41.410;2.194;2023-06-14T07:08:26;100950.00;;;25.91;45.27
49397;BME280;35615;41.410;2.194;2023-06-14T07:10:55;100951.75;;;25.92;45.02
49397;BME280;35615;41.410;2.194;2023-06-14T07:13:22;100951.66;;;25.96;45.21
49397;BME280;35615;41.410;2.194;2023-06-14T07:15:49;100948.03;;;26.00;44.84
49397;BME280;35615;41.410;2.194;2023-06-14T07:18:18;100957.00;;;25.95;45.38
49397;BME280;35615;41.410;2.194;2023-06-14T07:20:45;100964.06;;;25.93;45.06
49397;BME280;35615;41.410;2.194;2023-06-14T07:23:14;100962.25;;;25.96;45.05
49397;BME280;35615;41.410;2.194;2023-06-14T07:25:41;100956.94;;;25.96;44.97
49397;BME280;35615;41.410;2.194;2023-06-14T07:28:09;100959.75;;;25.89;45.03
49397;BME280;35615;41.410;2.194;2023-06-14T07:30:37;100962.75;;;26.12;44.53
49397;BME280;35615;41.410;2.194;2023-06-14T07:33:06;100966.63;;;25.97;44.87
49397;BME280;35615;41.410;2.194;2023-06-14T07:35:35;100971.28;;;26.25;44.75
49397;BME280;35615;41.410;2.194;2023-06-14T07:38:08;100966.81;;;26.28;44.83
49397;BME280;35615;41.410;2.194;2023-06-14T07:40:35;100968.38;;;26.37;44.71
49397;BME280;35615;41.410;2.194;2023-06-14T07:43:06;100960.78;;;26.22;44.16
49397;BME280;35615;41.410;2.194;2023-06-14T07:45:33;100962.97;;;26.43;44.36
49397;BME280;35615;41.410;2.194;2023-06-14T07:48:00;100967.66;;;26.30;44.43
49397;BME280;35615;41.410;2.194;2023-06-14T07:50:29;100972.81;;;26.35;43.97
49397;BME280;35615;41.410;2.194;2023-06-14T07:52:56;100968.09;;;26.51;43.95
49397;BME280;35615;41.410;2.194;2023-06-14T07:55:23;100962.09;;;26.43;43.88
49397;BME280;35615;41.410;2.194;2023-06-14T07:57:52;100968.13;;;26.48;43.41
49397;BME280;35615;41.410;2.194;2023-06-14T08:00:20;100969.69;;;26.56;43.50
49397;BME280;35615;41.410;2.194;2023-06-14T08:02:47;100972.25;;;26.61;43.42
49397;BME280;35615;41.410;2.194;2023-06-14T08:05:15;100972.56;;;26.47;43.24
49397;BME280;35615;41.410;2.194;2023-06-14T08:07:45;100979.22;;;26.65;43.04
49397;BME280;35615;41.410;2.194;2023-06-14T08:10:16;100979.94;;;26.72;43.03
49397;BME280;35615;41.410;2.194;2023-06-14T08:12:44;100978.75;;;26.83;43.08
49397;BME280;35615;41.410;2.194;2023-06-14T08:15:13;100968.16;;;26.83;42.94
49397;BME280;35615;41.410;2.194;2023-06-14T08:17:42;100969.22;;;26.76;42.94
49397;BME280;35615;41.410;2.194;2023-06-14T08:20:11;100964.19;;;27.00;43.11
49397;BME280;35615;41.410;2.194;2023-06-14T08:22:42;100969.63;;;26.93;42.81
49397;BME280;35615;41.410;2.194;2023-06-14T08:25:10;100961.50;;;27.01;42.48
49397;BME280;35615;41.410;2.194;2023-06-14T08:27:39;100966.16;;;27.26;42.25
49397;BME280;35615;41.410;2.194;2023-06-14T08:30:08;100963.00;;;27.44;42.31
49397;BME280;35615;41.410;2.194;2023-06-14T08:32:35;100961.06;;;27.49;41.86
49397;BME280;35615;41.410;2.194;2023-06-14T08:35:04;100960.56;;;27.36;42.07
49397;BME280;35615;41.410;2.194;2023-06-14T08:37:41;100956.69;;;27.49;41.44
49397;BME280;35615;41.410;2.194;2023-06-14T08:42:50;100966.19;;;27.88;40.62
49397;BME280;35615;41.410;2.194;2023-06-14T08:45:18;100967.88;;;28.20;39.79
49397;BME280;35615;41.410;2.194;2023-06-14T08:47:47;100952.84;;;28.47;39.43
49397;BME280;35615;41.410;2.194;2023-06-14T08:50:21;100952.56;;;28.82;38.61
49397;BME280;35615;41.410;2.194;2023-06-14T08:53:00;100961.22;;;29.14;38.14
49397;BME280;35615;41.410;2.194;2023-06-14T08:55:31;100967.03;;;29.25;37.34
49397;BME280;35615;41.410;2.194;2023-06-14T08:58:05;100959.09;;;29.48;36.45
49397;BME280;35615;41.410;2.194;2023-06-14T09:00:32;100959.88;;;29.75;37.20
49397;BME280;35615;41.410;2.194;2023-06-14T09:03:00;100955.28;;;29.79;36.87
49397;BME280;35615;41.410;2.194;2023-06-14T09:05:28;100959.41;;;29.88;36.15
49397;BME280;35615;41.410;2.194;2023-06-14T09:07:56;100964.22;;;29.78;36.10
49397;BME280;35615;41.410;2.194;2023-06-14T09:10:32;100962.19;;;29.36;35.95
49397;BME280;35615;41.410;2.194;2023-06-14T09:13:01;100957.97;;;29.31;35.54
49397;BME280;35615;41.410;2.194;2023-06-14T09:15:33;100957.34;;;29.72;35.88
49397;BME280;35615;41.410;2.194;2023-06-14T09:18:01;100948.88;;;29.85;35.63
49397;BME280;35615;41.410;2.194;2023-06-14T09:20:32;100957.25;;;29.97;35.25
49397;BME280;35615;41.410;2.194;2023-06-14T09:23:00;100962.81;;;30.36;34.04
49397;BME280;35615;41.410;2.194;2023-06-14T09:25:31;100966.53;;;30.11;34.42
49397;BME280;35615;41.410;2.194;2023-06-14T09:28:01;100974.09;;;30.21;33.83
49397;BME280;35615;41.410;2.194;2023-06-14T09:30:28;100975.53;;;30.30;34.96
49397;BME280;35615;41.410;2.194;2023-06-14T09:33:00;100974.53;;;30.54;34.39
49397;BME280;35615;41.410;2.194;2023-06-14T09:35:31;100973.47;;;30.80;34.33
49397;BME280;35615;41.410;2.194;2023-06-14T09:37:59;100969.31;;;30.95;33.88
49397;BME280;35615;41.410;2.194;2023-06-14T09:40:27;100957.63;;;30.98;33.74
49397;BME280;35615;41.410;2.194;2023-06-14T09:42:54;100968.97;;;31.23;33.73
49397;BME280;35615;41.410;2.194;2023-06-14T09:45:26;100971.38;;;31.49;32.86
49397;BME280;35615;41.410;2.194;2023-06-14T09:47:58;100974.22;;;31.26;33.05
49397;BME280;35615;41.410;2.194;2023-06-14T09:50:34;100973.69;;;31.37;33.00
49397;BME280;35615;41.410;2.194;2023-06-14T09:53:11;100975.38;;;30.99;32.98
49397;BME280;35615;41.410;2.194;2023-06-14T09:55:41;100973.28;;;30.85;32.48
49397;BME280;35615;41.410;2.194;2023-06-14T09:58:10;100979.47;;;30.65;33.31
49397;BME280;35615;41.410;2.194;2023-06-14T10:00:39;100977.69;;;30.86;33.56
49397;BME280;35615;41.410;2.194;2023-06-14T10:03:14;100977.34;;;30.73;32.76
49397;BME280;35615;41.410;2.194;2023-06-14T10:06:16;100980.66;;;31.20;32.95
49397;BME280;35615;41.410;2.194;2023-06-14T10:08:45;100985.06;;;31.21;32.60
49397;BME280;35615;41.410;2.194;2023-06-14T10:11:13;100987.00;;;30.76;35.43
49397;BME280;35615;41.410;2.194;2023-06-14T10:13:43;100987.00;;;30.76;35.60
49397;BME280;35615;41.410;2.194;2023-06-14T10:16:24;100985.63;;;31.30;34.53
49397;BME280;35615;41.410;2.194;2023-06-14T10:19:24;100982.16;;;31.46;34.25
49397;BME280;35615;41.410;2.194;2023-06-14T10:22:17;100983.22;;;30.81;35.75
49397;BME280;35615;41.410;2.194;2023-06-14T10:24:48;100984.50;;;30.93;35.93
49397;BME280;35615;41.410;2.194;2023-06-14T10:27:17;100979.25;;;30.70;35.25
49397;BME280;35615;41.410;2.194;2023-06-14T10:32:21;100974.72;;;30.93;35.27
49397;BME280;35615;41.410;2.194;2023-06-14T10:35:06;100983.81;;;31.30;34.65
49397;BME280;35615;41.410;2.194;2023-06-14T10:37:34;100972.31;;;31.48;34.20
49397;BME280;35615;41.410;2.194;2023-06-14T10:40:03;100971.06;;;31.76;34.41
49397;BME280;35615;41.410;2.194;2023-06-14T10:42:32;100975.44;;;31.17;34.71
49397;BME280;35615;41.410;2.194;2023-06-14T10:45:00;100976.63;;;30.90;35.21
49397;BME280;35615;41.410;2.194;2023-06-14T10:47:30;100980.84;;;30.96;34.88
49397;BME280;35615;41.410;2.194;2023-06-14T10:50:03;100984.69;;;30.88;34.93
49397;BME280;35615;41.410;2.194;2023-06-14T10:52:42;100990.25;;;31.04;35.11
49397;BME280;35615;41.410;2.194;2023-06-14T10:55:35;100991.38;;;30.99;35.24
49397;BME280;35615;41.410;2.194;2023-06-14T10:58:43;101001.16;;;30.78;35.73
49397;BME280;35615;41.410;2.194;2023-06-14T11:01:16;101001.31;;;30.95;34.91
49397;BME280;35615;41.410;2.194;2023-06-14T11:03:52;100992.94;;;31.04;34.79
49397;BME280;35615;41.410;2.194;2023-06-14T11:06:30;100991.00;;;31.08;34.78
49397;BME280;35615;41.410;2.194;2023-06-14T11:09:38;101000.16;;;31.22;34.76
49397;BME280;35615;41.410;2.194;2023-06-14T11:12:13;100999.28;;;31.42;34.73
49397;BME280;35615;41.410;2.194;2023-06-14T11:14:42;101013.06;;;31.11;34.04
49397;BME280;35615;41.410;2.194;2023-06-14T11:17:14;101008.56;;;31.34;34.28
49397;BME280;35615;41.410;2.194;2023-06-14T11:19:41;101003.06;;;31.77;34.01
49397;BME280;35615;41.410;2.194;2023-06-14T11:22:09;101006.56;;;31.39;33.88
49397;BME280;35615;41.410;2.194;2023-06-14T11:24:49;101013.03;;;31.54;33.98
49397;BME280;35615;41.410;2.194;2023-06-14T11:27:20;101004.19;;;31.72;33.54
49397;BME280;35615;41.410;2.194;2023-06-14T11:29:50;100994.66;;;31.26;33.52
49397;BME280;35615;41.410;2.194;2023-06-14T11:32:17;101003.34;;;31.31;33.46
49397;BME280;35615;41.410;2.194;2023-06-14T11:34:49;101013.84;;;31.13;34.32
49397;BME280;35615;41.410;2.194;2023-06-14T11:37:18;101016.22;;;31.62;33.84
49397;BME280;35615;41.410;2.194;2023-06-14T11:39:45;101015.84;;;31.69;33.83
49397;BME280;35615;41.410;2.194;2023-06-14T11:42:16;101018.69;;;31.26;34.04
49397;BME280;35615;41.410;2.194;2023-06-14T11:44:46;101011.94;;;31.78;33.60
49397;BME280;35615;41.410;2.194;2023-06-14T11:47:14;101016.97;;;31.25;33.79
49397;BME280;35615;41.410;2.194;2023-06-14T11:49:42;101017.94;;;30.58;34.99
49397;BME280;35615;41.410;2.194;2023-06-14T11:52:10;101009.91;;;30.38;35.13
49397;BME280;35615;41.410;2.194;2023-06-14T11:54:38;101010.19;;;30.52;35.02
49397;BME280;35615;41.410;2.194;2023-06-14T11:57:07;101004.56;;;30.81;34.06
49397;BME280;35615;41.410;2.194;2023-06-14T11:59:41;101007.03;;;30.86;34.67
49397;BME280;35615;41.410;2.194;2023-06-14T12:02:08;101002.25;;;31.14;33.68
49397;BME280;35615;41.410;2.194;2023-06-14T12:04:36;100993.06;;;31.42;33.63
49397;BME280;35615;41.410;2.194;2023-06-14T12:07:14;100996.72;;;31.60;32.89
49397;BME280;35615;41.410;2.194;2023-06-14T12:12:26;101001.69;;;31.28;33.25
49397;BME280;35615;41.410;2.194;2023-06-14T12:14:57;100990.72;;;31.94;32.58
49397;BME280;35615;41.410;2.194;2023-06-14T12:17:25;101007.06;;;31.47;33.11
49397;BME280;35615;41.410;2.194;2023-06-14T12:19:55;101002.03;;;31.80;32.86
49397;BME280;35615;41.410;2.194;2023-06-14T12:22:25;100991.69;;;31.72;33.17
49397;BME280;35615;41.410;2.194;2023-06-14T12:24:55;100990.56;;;31.78;32.98
49397;BME280;35615;41.410;2.194;2023-06-14T12:27:27;100986.38;;;31.91;32.64
49397;BME280;35615;41.410;2.194;2023-06-14T12:30:03;100981.97;;;32.28;32.21
49397;BME280;35615;41.410;2.194;2023-06-14T12:32:32;100988.53;;;32.21;32.48
49397;BME280;35615;41.410;2.194;2023-06-14T12:35:09;100989.56;;;31.99;32.69
49397;BME280;35615;41.410;2.194;2023-06-14T12:37:36;100994.75;;;32.02;33.24
49397;BME280;35615;41.410;2.194;2023-06-14T12:40:04;100993.16;;;32.36;33.66
49397;BME280;35615;41.410;2.194;2023-06-14T12:42:38;100988.34;;;31.28;33.97
49397;BME280;35615;41.410;2.194;2023-06-14T12:45:09;100993.22;;;31.39;34.15
49397;BME280;35615;41.410;2.194;2023-06-14T12:47:37;100985.88;;;31.23;34.54
49397;BME280;35615;41.410;2.194;2023-06-14T12:50:05;100973.69;;;31.57;34.06
49397;BME280;35615;41.410;2.194;2023-06-14T12:52:33;100984.31;;;31.18;34.76
49397;BME280;35615;41.410;2.194;2023-06-14T12:55:09;100984.06;;;31.44;34.49
49397;BME280;35615;41.410;2.194;2023-06-14T12:57:36;100985.13;;;31.40;34.83
49397;BME280;35615;41.410;2.194;2023-06-14T13:00:05;100983.56;;;31.55;35.11
49397;BME280;35615;41.410;2.194;2023-06-14T13:02:34;100981.34;;;31.04;36.01
49397;BME280;35615;41.410;2.194;2023-06-14T13:05:02;100985.63;;;30.44;37.11
49397;BME280;35615;41.410;2.194;2023-06-14T13:07:31;100993.00;;;30.37;36.78
49397;BME280;35615;41.410;2.194;2023-06-14T13:09:58;100986.38;;;30.02;38.71
49397;BME280;35615;41.410;2.194;2023-06-14T13:12:25;100988.38;;;29.73;38.93
49397;BME280;35615;41.410;2.194;2023-06-14T13:14:53;100984.44;;;29.60;39.03
49397;BME280;35615;41.410;2.194;2023-06-14T13:17:20;100974.22;;;29.48;38.37